sensor_id;sensor_type;location;lat;lon;timestamp;P1;durP1;ratioP1;P2;durP2;ratioP2
20042;SDS011;10182;52.896;6.496;2023-04-01T00:01:29;9.63;;;6.80;;
20042;SDS011;10182;52.896;6.496;2023-04-01T00:06:31;9.17;;;6.60;;
20042;SDS011;10182;52.896;6.496;2023-04-01T00:11:34;7.13;;;6.53;;
20042;SDS011;10182;52.896;6.496;2023-04-01T00:22:30;7.87;;;6.53;;
20042;SDS011;10182;52.896;6.496;2023-04-01T00:27:35;6.23;;;5.63;;
20042;SDS011;10182;52.896;6.496;2023-04-01T00:32:36;8.23;;;5.57;;
20042;SDS011;10182;52.896;6.496;2023-04-01T00:37:38;5.73;;;5.23;;
20042;SDS011;10182;52.896;6.496;2023-04-01T00:42:42;8.93;;;5.63;;
20042;SDS011;10182;52.896;6.496;2023-04-01T00:47:43;5.33;;;4.70;;
20042;SDS011;10182;52.896;6.496;2023-04-01T00:52:45;5.57;;;5.07;;
20042;SDS011;10182;52.896;6.496;2023-04-01T00:57:48;5.07;;;4.57;;
20042;SDS011;10182;52.896;6.496;2023-04-01T01:02:52;4.90;;;4.40;;
20042;SDS011;10182;52.896;6.496;2023-04-01T01:07:55;5.67;;;3.63;;
20042;SDS011;10182;52.896;6.496;2023-04-01T01:13:10;3.93;;;3.10;;
20042;SDS011;10182;52.896;6.496;2023-04-01T01:18:18;3.23;;;2.80;;
20042;SDS011;10182;52.896;6.496;2023-04-01T01:35:09;2.80;;;2.60;;
20042;SDS011;10182;52.896;6.496;2023-04-01T01:40:20;2.90;;;2.67;;
20042;SDS011;10182;52.896;6.496;2023-04-01T01:45:23;3.93;;;3.50;;
20042;SDS011;10182;52.896;6.496;2023-04-01T01:50:28;3.57;;;3.27;;
20042;SDS011;10182;52.896;6.496;2023-04-01T01:55:31;4.40;;;4.00;;
20042;SDS011;10182;52.896;6.496;2023-04-01T02:00:34;4.80;;;4.40;;
20042;SDS011;10182;52.896;6.496;2023-04-01T02:05:38;5.03;;;4.53;;
20042;SDS011;10182;52.896;6.496;2023-04-01T02:10:41;6.27;;;4.80;;
20042;SDS011;10182;52.896;6.496;2023-04-01T02:15:47;6.43;;;5.83;;
20042;SDS011;10182;52.896;6.496;2023-04-01T02:20:52;7.07;;;6.37;;
20042;SDS011;10182;52.896;6.496;2023-04-01T02:25:56;6.60;;;5.47;;
20042;SDS011;10182;52.896;6.496;2023-04-01T02:30:57;7.23;;;6.60;;
20042;SDS011;10182;52.896;6.496;2023-04-01T02:36:04;6.43;;;5.83;;
20042;SDS011;10182;52.896;6.496;2023-04-01T02:41:05;7.00;;;6.40;;
20042;SDS011;10182;52.896;6.496;2023-04-01T02:46:07;7.83;;;6.17;;
20042;SDS011;10182;52.896;6.496;2023-04-01T02:51:10;6.87;;;6.17;;
20042;SDS011;10182;52.896;6.496;2023-04-01T02:56:12;6.87;;;6.17;;
20042;SDS011;10182;52.896;6.496;2023-04-01T03:01:14;7.20;;;6.50;;
20042;SDS011;10182;52.896;6.496;2023-04-01T03:06:17;8.73;;;7.10;;
20042;SDS011;10182;52.896;6.496;2023-04-01T03:11:19;9.37;;;7.00;;
20042;SDS011;10182;52.896;6.496;2023-04-01T03:16:21;11.07;;;7.83;;
20042;SDS011;10182;52.896;6.496;2023-04-01T03:21:25;9.10;;;7.77;;
20042;SDS011;10182;52.896;6.496;2023-04-01T03:26:27;8.90;;;7.97;;
20042;SDS011;10182;52.896;6.496;2023-04-01T03:31:28;9.30;;;8.40;;
20042;SDS011;10182;52.896;6.496;2023-04-01T03:36:31;9.20;;;8.23;;
20042;SDS011;10182;52.896;6.496;2023-04-01T03:41:36;9.10;;;8.20;;
20042;SDS011;10182;52.896;6.496;2023-04-01T03:46:38;10.47;;;8.30;;
20042;SDS011;10182;52.896;6.496;2023-04-01T03:51:41;9.17;;;7.40;;
20042;SDS011;10182;52.896;6.496;2023-04-01T03:56:44;11.17;;;8.83;;
20042;SDS011;10182;52.896;6.496;2023-04-01T04:01:46;8.17;;;7.27;;
20042;SDS011;10182;52.896;6.496;2023-04-01T04:06:50;8.03;;;7.23;;
20042;SDS011;10182;52.896;6.496;2023-04-01T04:11:52;8.40;;;7.50;;
20042;SDS011;10182;52.896;6.496;2023-04-01T04:16:54;9.03;;;7.40;;
20042;SDS011;10182;52.896;6.496;2023-04-01T04:21:57;7.87;;;7.07;;
20042;SDS011;10182;52.896;6.496;2023-04-01T04:27:00;9.07;;;7.47;;
20042;SDS011;10182;52.896;6.496;2023-04-01T04:32:02;7.23;;;6.37;;
20042;SDS011;10182;52.896;6.496;2023-04-01T04:37:05;9.53;;;6.63;;
20042;SDS011;10182;52.896;6.496;2023-04-01T04:42:07;8.10;;;7.23;;
20042;SDS011;10182;52.896;6.496;2023-04-01T04:47:08;8.80;;;6.77;;
20042;SDS011;10182;52.896;6.496;2023-04-01T04:52:12;8.07;;;6.50;;
20042;SDS011;10182;52.896;6.496;2023-04-01T04:57:13;6.87;;;5.97;;
20042;SDS011;10182;52.896;6.496;2023-04-01T05:02:15;7.70;;;6.50;;
20042;SDS011;10182;52.896;6.496;2023-04-01T05:07:18;8.20;;;7.03;;
20042;SDS011;10182;52.896;6.496;2023-04-01T05:12:20;8.47;;;6.47;;
20042;SDS011;10182;52.896;6.496;2023-04-01T05:17:22;7.43;;;6.13;;
20042;SDS011;10182;52.896;6.496;2023-04-01T05:22:25;8.97;;;6.63;;
20042;SDS011;10182;52.896;6.496;2023-04-01T05:27:27;7.13;;;5.97;;
20042;SDS011;10182;52.896;6.496;2023-04-01T05:32:30;10.33;;;6.93;;
20042;SDS011;10182;52.896;6.496;2023-04-01T05:37:34;6.50;;;5.77;;
20042;SDS011;10182;52.896;6.496;2023-04-01T05:42:36;9.20;;;7.33;;
20042;SDS011;10182;52.896;6.496;2023-04-01T05:47:37;9.63;;;7.20;;
20042;SDS011;10182;52.896;6.496;2023-04-01T05:52:40;9.07;;;7.63;;
20042;SDS011;10182;52.896;6.496;2023-04-01T05:57:43;9.97;;;8.27;;
20042;SDS011;10182;52.896;6.496;2023-04-01T06:02:46;10.77;;;9.13;;
20042;SDS011;10182;52.896;6.496;2023-04-01T06:07:49;10.83;;;8.73;;
20042;SDS011;10182;52.896;6.496;2023-04-01T06:12:58;11.17;;;8.93;;
20042;SDS011;10182;52.896;6.496;2023-04-01T06:18:18;11.00;;;9.27;;
20042;SDS011;10182;52.896;6.496;2023-04-01T06:23:44;10.47;;;8.67;;
20042;SDS011;10182;52.896;6.496;2023-04-01T06:29:08;9.93;;;8.83;;
20042;SDS011;10182;52.896;6.496;2023-04-01T06:34:33;9.97;;;8.77;;
20042;SDS011;10182;52.896;6.496;2023-04-01T06:40:00;9.57;;;7.67;;
20042;SDS011;10182;52.896;6.496;2023-04-01T06:45:16;9.97;;;8.07;;
20042;SDS011;10182;52.896;6.496;2023-04-01T06:50:33;6.70;;;5.73;;
20042;SDS011;10182;52.896;6.496;2023-04-01T06:55:44;6.57;;;5.60;;
20042;SDS011;10182;52.896;6.496;2023-04-01T07:06:12;4.10;;;3.70;;
20042;SDS011;10182;52.896;6.496;2023-04-01T07:11:24;5.63;;;4.57;;
20042;SDS011;10182;52.896;6.496;2023-04-01T07:16:30;5.90;;;4.87;;
20042;SDS011;10182;52.896;6.496;2023-04-01T07:21:36;8.17;;;6.00;;
20042;SDS011;10182;52.896;6.496;2023-04-01T07:26:44;8.73;;;6.53;;
20042;SDS011;10182;52.896;6.496;2023-04-01T07:31:50;8.77;;;7.47;;
20042;SDS011;10182;52.896;6.496;2023-04-01T07:37:03;10.87;;;9.40;;
20042;SDS011;10182;52.896;6.496;2023-04-01T07:42:14;12.30;;;9.40;;
20042;SDS011;10182;52.896;6.496;2023-04-01T07:47:26;13.27;;;9.77;;
20042;SDS011;10182;52.896;6.496;2023-04-01T07:52:37;13.23;;;10.07;;
20042;SDS011;10182;52.896;6.496;2023-04-01T07:57:49;12.03;;;10.73;;
20042;SDS011;10182;52.896;6.496;2023-04-01T08:03:01;14.07;;;11.17;;
20042;SDS011;10182;52.896;6.496;2023-04-01T08:08:17;13.47;;;11.90;;
20042;SDS011;10182;52.896;6.496;2023-04-01T08:13:29;12.40;;;11.10;;
20042;SDS011;10182;52.896;6.496;2023-04-01T08:18:39;12.13;;;10.93;;
20042;SDS011;10182;52.896;6.496;2023-04-01T08:23:48;12.23;;;10.57;;
20042;SDS011;10182;52.896;6.496;2023-04-01T08:28:56;12.13;;;10.83;;
20042;SDS011;10182;52.896;6.496;2023-04-01T08:34:02;11.23;;;10.03;;
20042;SDS011;10182;52.896;6.496;2023-04-01T08:39:07;10.60;;;9.37;;
20042;SDS011;10182;52.896;6.496;2023-04-01T08:50:12;7.30;;;5.90;;
20042;SDS011;10182;52.896;6.496;2023-04-01T08:55:30;7.17;;;5.73;;
20042;SDS011;10182;52.896;6.496;2023-04-01T09:00:40;5.33;;;4.80;;
20042;SDS011;10182;52.896;6.496;2023-04-01T09:11:29;6.87;;;6.17;;
20042;SDS011;10182;52.896;6.496;2023-04-01T09:22:20;9.27;;;7.33;;
20042;SDS011;10182;52.896;6.496;2023-04-01T09:27:27;10.03;;;8.83;;
20042;SDS011;10182;52.896;6.496;2023-04-01T09:32:42;10.33;;;8.23;;
20042;SDS011;10182;52.896;6.496;2023-04-01T09:38:00;10.00;;;9.00;;
20042;SDS011;10182;52.896;6.496;2023-04-01T09:43:20;11.17;;;9.63;;
20042;SDS011;10182;52.896;6.496;2023-04-01T09:48:38;11.97;;;10.53;;
20042;SDS011;10182;52.896;6.496;2023-04-01T09:53:49;12.00;;;10.80;;
20042;SDS011;10182;52.896;6.496;2023-04-01T10:04:56;12.37;;;11.10;;
20042;SDS011;10182;52.896;6.496;2023-04-01T10:16:11;13.60;;;11.47;;
20042;SDS011;10182;52.896;6.496;2023-04-01T10:21:29;14.23;;;11.47;;
20042;SDS011;10182;52.896;6.496;2023-04-01T10:26:59;13.80;;;12.40;;
20042;SDS011;10182;52.896;6.496;2023-04-01T10:32:31;13.87;;;12.40;;
20042;SDS011;10182;52.896;6.496;2023-04-01T10:38:15;11.83;;;10.63;;
20042;SDS011;10182;52.896;6.496;2023-04-01T10:43:40;5.80;;;5.30;;
20042;SDS011;10182;52.896;6.496;2023-04-01T10:49:10;6.13;;;5.63;;
20042;SDS011;10182;52.896;6.496;2023-04-01T10:59:57;6.10;;;5.43;;
20042;SDS011;10182;52.896;6.496;2023-04-01T11:05:26;7.20;;;6.50;;
20042;SDS011;10182;52.896;6.496;2023-04-01T11:21:59;6.70;;;6.10;;
20042;SDS011;10182;52.896;6.496;2023-04-01T11:27:25;7.97;;;7.27;;
20042;SDS011;10182;52.896;6.496;2023-04-01T11:32:46;7.03;;;6.37;;
20042;SDS011;10182;52.896;6.496;2023-04-01T11:37:54;6.63;;;6.03;;
20042;SDS011;10182;52.896;6.496;2023-04-01T11:43:09;6.17;;;5.30;;
20042;SDS011;10182;52.896;6.496;2023-04-01T11:53:58;5.30;;;4.80;;
20042;SDS011;10182;52.896;6.496;2023-04-01T12:10:05;4.20;;;3.90;;
20042;SDS011;10182;52.896;6.496;2023-04-01T12:15:22;5.07;;;4.10;;
20042;SDS011;10182;52.896;6.496;2023-04-01T12:20:34;4.43;;;4.03;;
20042;SDS011;10182;52.896;6.496;2023-04-01T12:26:00;6.37;;;4.30;;
20042;SDS011;10182;52.896;6.496;2023-04-01T12:31:31;5.20;;;4.70;;
20042;SDS011;10182;52.896;6.496;2023-04-01T12:36:45;5.20;;;4.80;;
20042;SDS011;10182;52.896;6.496;2023-04-01T12:41:55;5.23;;;4.83;;
20042;SDS011;10182;52.896;6.496;2023-04-01T12:52:39;5.70;;;5.20;;
20042;SDS011;10182;52.896;6.496;2023-04-01T12:57:54;5.37;;;4.97;;
20042;SDS011;10182;52.896;6.496;2023-04-01T13:08:46;6.00;;;4.70;;
20042;SDS011;10182;52.896;6.496;2023-04-01T13:14:00;4.90;;;4.50;;
20042;SDS011;10182;52.896;6.496;2023-04-01T13:19:17;5.00;;;4.50;;
20042;SDS011;10182;52.896;6.496;2023-04-01T13:24:27;4.70;;;4.30;;
20042;SDS011;10182;52.896;6.496;2023-04-01T13:29:38;5.83;;;5.30;;
20042;SDS011;10182;52.896;6.496;2023-04-01T13:34:50;4.77;;;4.37;;
20042;SDS011;10182;52.896;6.496;2023-04-01T13:40:13;5.23;;;4.73;;
20042;SDS011;10182;52.896;6.496;2023-04-01T13:45:26;4.47;;;4.07;;
20042;SDS011;10182;52.896;6.496;2023-04-01T13:50:50;4.63;;;4.30;;
20042;SDS011;10182;52.896;6.496;2023-04-01T14:01:32;3.60;;;3.30;;
20042;SDS011;10182;52.896;6.496;2023-04-01T14:06:45;3.17;;;2.90;;
20042;SDS011;10182;52.896;6.496;2023-04-01T14:11:56;3.13;;;2.90;;
20042;SDS011;10182;52.896;6.496;2023-04-01T14:17:10;3.43;;;3.23;;
20042;SDS011;10182;52.896;6.496;2023-04-01T14:22:30;3.03;;;2.83;;
20042;SDS011;10182;52.896;6.496;2023-04-01T14:27:41;3.20;;;2.93;;
20042;SDS011;10182;52.896;6.496;2023-04-01T14:32:55;2.97;;;2.70;;
20042;SDS011;10182;52.896;6.496;2023-04-01T14:38:11;2.80;;;2.60;;
20042;SDS011;10182;52.896;6.496;2023-04-01T14:43:32;2.27;;;2.17;;
20042;SDS011;10182;52.896;6.496;2023-04-01T14:48:49;2.67;;;2.47;;
20042;SDS011;10182;52.896;6.496;2023-04-01T14:53:57;2.80;;;2.53;;
20042;SDS011;10182;52.896;6.496;2023-04-01T14:59:07;2.27;;;2.17;;
20042;SDS011;10182;52.896;6.496;2023-04-01T15:04:28;3.07;;;2.87;;
20042;SDS011;10182;52.896;6.496;2023-04-01T15:09:45;3.00;;;2.80;;
20042;SDS011;10182;52.896;6.496;2023-04-01T15:14:59;3.43;;;3.20;;
20042;SDS011;10182;52.896;6.496;2023-04-01T15:20:22;2.70;;;2.50;;
20042;SDS011;10182;52.896;6.496;2023-04-01T15:25:42;3.00;;;2.80;;
20042;SDS011;10182;52.896;6.496;2023-04-01T15:31:03;3.03;;;2.83;;
20042;SDS011;10182;52.896;6.496;2023-04-01T15:36:15;2.50;;;2.40;;
20042;SDS011;10182;52.896;6.496;2023-04-01T15:41:34;2.50;;;2.30;;
20042;SDS011;10182;52.896;6.496;2023-04-01T15:46:44;3.40;;;3.00;;
20042;SDS011;10182;52.896;6.496;2023-04-01T15:51:53;3.37;;;2.60;;
20042;SDS011;10182;52.896;6.496;2023-04-01T15:57:08;2.77;;;2.57;;
20042;SDS011;10182;52.896;6.496;2023-04-01T16:02:18;2.80;;;2.60;;
20042;SDS011;10182;52.896;6.496;2023-04-01T16:07:30;2.67;;;2.47;;
20042;SDS011;10182;52.896;6.496;2023-04-01T16:13:01;3.33;;;3.13;;
20042;SDS011;10182;52.896;6.496;2023-04-01T16:18:40;3.77;;;3.47;;
20042;SDS011;10182;52.896;6.496;2023-04-01T16:23:56;3.93;;;3.53;;
20042;SDS011;10182;52.896;6.496;2023-04-01T16:29:08;5.70;;;5.20;;
20042;SDS011;10182;52.896;6.496;2023-04-01T16:34:14;5.87;;;5.30;;
20042;SDS011;10182;52.896;6.496;2023-04-01T16:39:25;6.00;;;5.50;;
20042;SDS011;10182;52.896;6.496;2023-04-01T16:44:41;7.37;;;5.50;;
20042;SDS011;10182;52.896;6.496;2023-04-01T16:49:51;6.13;;;5.63;;
20042;SDS011;10182;52.896;6.496;2023-04-01T16:54:56;6.40;;;5.87;;
20042;SDS011;10182;52.896;6.496;2023-04-01T17:00:09;6.53;;;5.93;;
20042;SDS011;10182;52.896;6.496;2023-04-01T17:05:18;7.00;;;5.93;;
20042;SDS011;10182;52.896;6.496;2023-04-01T17:10:37;6.93;;;6.17;;
20042;SDS011;10182;52.896;6.496;2023-04-01T17:15:54;6.00;;;5.43;;
20042;SDS011;10182;52.896;6.496;2023-04-01T17:21:07;6.37;;;5.40;;
20042;SDS011;10182;52.896;6.496;2023-04-01T17:26:24;7.10;;;5.80;;
20042;SDS011;10182;52.896;6.496;2023-04-01T17:31:41;6.40;;;5.83;;
20042;SDS011;10182;52.896;6.496;2023-04-01T17:37:01;6.27;;;5.67;;
20042;SDS011;10182;52.896;6.496;2023-04-01T17:42:16;8.50;;;7.20;;
20042;SDS011;10182;52.896;6.496;2023-04-01T17:47:38;9.47;;;6.90;;
20042;SDS011;10182;52.896;6.496;2023-04-01T17:52:46;8.60;;;6.80;;
20042;SDS011;10182;52.896;6.496;2023-04-01T17:57:54;7.27;;;6.23;;
20042;SDS011;10182;52.896;6.496;2023-04-01T18:03:05;6.93;;;6.20;;
20042;SDS011;10182;52.896;6.496;2023-04-01T18:08:21;8.13;;;6.13;;
20042;SDS011;10182;52.896;6.496;2023-04-01T18:13:41;7.27;;;5.80;;
20042;SDS011;10182;52.896;6.496;2023-04-01T18:18:59;7.20;;;5.87;;
20042;SDS011;10182;52.896;6.496;2023-04-01T18:24:11;7.67;;;6.80;;
20042;SDS011;10182;52.896;6.496;2023-04-01T18:29:24;8.03;;;6.73;;
20042;SDS011;10182;52.896;6.496;2023-04-01T18:34:41;10.33;;;7.77;;
20042;SDS011;10182;52.896;6.496;2023-04-01T18:39:51;8.90;;;7.23;;
20042;SDS011;10182;52.896;6.496;2023-04-01T18:44:57;10.43;;;7.33;;
20042;SDS011;10182;52.896;6.496;2023-04-01T18:50:13;8.73;;;7.83;;
20042;SDS011;10182;52.896;6.496;2023-04-01T18:55:36;10.97;;;7.70;;
20042;SDS011;10182;52.896;6.496;2023-04-01T19:00:43;9.67;;;8.10;;
20042;SDS011;10182;52.896;6.496;2023-04-01T19:05:52;10.20;;;7.83;;
20042;SDS011;10182;52.896;6.496;2023-04-01T19:10:59;11.93;;;8.50;;
20042;SDS011;10182;52.896;6.496;2023-04-01T19:16:09;9.87;;;7.90;;
20042;SDS011;10182;52.896;6.496;2023-04-01T19:21:19;9.27;;;7.63;;
20042;SDS011;10182;52.896;6.496;2023-04-01T19:26:28;9.10;;;8.03;;
20042;SDS011;10182;52.896;6.496;2023-04-01T19:31:42;11.40;;;7.47;;
20042;SDS011;10182;52.896;6.496;2023-04-01T19:36:55;8.57;;;6.80;;
20042;SDS011;10182;52.896;6.496;2023-04-01T19:42:02;8.73;;;7.93;;
20042;SDS011;10182;52.896;6.496;2023-04-01T19:47:14;8.37;;;7.57;;
20042;SDS011;10182;52.896;6.496;2023-04-01T19:52:26;12.83;;;8.50;;
20042;SDS011;10182;52.896;6.496;2023-04-01T19:57:34;12.90;;;8.50;;
20042;SDS011;10182;52.896;6.496;2023-04-01T20:02:49;10.03;;;9.03;;
20042;SDS011;10182;52.896;6.496;2023-04-01T20:08:00;11.90;;;7.97;;
20042;SDS011;10182;52.896;6.496;2023-04-01T20:13:13;10.90;;;9.10;;
20042;SDS011;10182;52.896;6.496;2023-04-01T20:18:23;14.40;;;9.60;;
20042;SDS011;10182;52.896;6.496;2023-04-01T20:23:38;16.17;;;9.63;;
20042;SDS011;10182;52.896;6.496;2023-04-01T20:28:43;14.17;;;9.83;;
20042;SDS011;10182;52.896;6.496;2023-04-01T20:45:16;11.83;;;10.23;;
20042;SDS011;10182;52.896;6.496;2023-04-01T20:50:34;12.10;;;10.30;;
20042;SDS011;10182;52.896;6.496;2023-04-01T20:55:55;14.97;;;9.67;;
20042;SDS011;10182;52.896;6.496;2023-04-01T21:01:07;11.27;;;9.53;;
20042;SDS011;10182;52.896;6.496;2023-04-01T21:06:22;13.73;;;9.47;;
20042;SDS011;10182;52.896;6.496;2023-04-01T21:11:39;11.43;;;8.93;;
20042;SDS011;10182;52.896;6.496;2023-04-01T21:16:52;13.83;;;9.37;;
20042;SDS011;10182;52.896;6.496;2023-04-01T21:22:08;11.83;;;8.83;;
20042;SDS011;10182;52.896;6.496;2023-04-01T21:27:24;11.83;;;9.30;;
20042;SDS011;10182;52.896;6.496;2023-04-01T21:32:48;12.27;;;9.37;;
20042;SDS011;10182;52.896;6.496;2023-04-01T21:38:06;10.80;;;9.13;;
20042;SDS011;10182;52.896;6.496;2023-04-01T21:43:31;12.47;;;8.33;;
20042;SDS011;10182;52.896;6.496;2023-04-01T21:48:59;12.77;;;9.33;;
20042;SDS011;10182;52.896;6.496;2023-04-01T21:54:30;11.27;;;8.03;;
20042;SDS011;10182;52.896;6.496;2023-04-01T21:59:55;16.07;;;8.97;;
20042;SDS011;10182;52.896;6.496;2023-04-01T22:05:13;10.77;;;7.93;;
20042;SDS011;10182;52.896;6.496;2023-04-01T22:10:23;9.33;;;7.87;;
20042;SDS011;10182;52.896;6.496;2023-04-01T22:15:43;9.57;;;8.17;;
20042;SDS011;10182;52.896;6.496;2023-04-01T22:20:58;10.43;;;8.17;;
20042;SDS011;10182;52.896;6.496;2023-04-01T22:26:05;9.80;;;7.90;;
20042;SDS011;10182;52.896;6.496;2023-04-01T22:31:14;10.50;;;7.90;;
20042;SDS011;10182;52.896;6.496;2023-04-01T22:36:26;11.90;;;7.83;;
20042;SDS011;10182;52.896;6.496;2023-04-01T22:41:40;11.57;;;7.30;;
20042;SDS011;10182;52.896;6.496;2023-04-01T22:46:53;11.20;;;8.17;;
20042;SDS011;10182;52.896;6.496;2023-04-01T22:52:03;12.37;;;7.97;;
20042;SDS011;10182;52.896;6.496;2023-04-01T22:57:12;7.80;;;7.00;;
20042;SDS011;10182;52.896;6.496;2023-04-01T23:02:21;10.23;;;7.43;;
20042;SDS011;10182;52.896;6.496;2023-04-01T23:07:34;9.63;;;7.37;;
20042;SDS011;10182;52.896;6.496;2023-04-01T23:12:46;11.57;;;8.17;;
20042;SDS011;10182;52.896;6.496;2023-04-01T23:23:22;10.53;;;7.00;;
20042;SDS011;10182;52.896;6.496;2023-04-01T23:33:52;10.13;;;7.03;;
20042;SDS011;10182;52.896;6.496;2023-04-01T23:39:03;10.20;;;7.20;;
20042;SDS011;10182;52.896;6.496;2023-04-01T23:44:08;9.60;;;7.10;;
20042;SDS011;10182;52.896;6.496;2023-04-01T23:49:14;10.03;;;6.70;;
20042;SDS011;10182;52.896;6.496;2023-04-01T23:54:23;9.77;;;7.00;;
20042;SDS011;10182;52.896;6.496;2023-04-01T23:59:31;8.23;;;6.30;;
